Time;durP1;ratioP1;P1;durP2;ratioP2;P2;SDS_P1;SDS_P2;PMS_P1;PMS_P2;Temp;Humidity;BMP_temperature;BMP_pressure;BME280_temperature;BME280_humidity;BME280_pressure;Samples;Min_cycle;Max_cycle;Signal;HPM_P1;HPM_P2
2021/01/21 00:00:19;;;;;;;4.35;2.30;;;;;;;;;;5110959;28;20192;-61
2021/01/21 00:02:45;;;;;;;4.82;2.38;;;;;;;;;;5106540;28;20089;-61
2021/01/21 00:05:10;;;;;;;7.25;2.47;;;;;;;;;;5107932;28;20418;-61
2021/01/21 00:07:36;;;;;;;4.05;2.03;;;;;;;;;;5107704;28;20039;-61
2021/01/21 00:10:02;;;;;;;4.45;1.83;;;;;;;;;;5111711;28;20038;-61
2021/01/21 00:12:27;;;;;;;6.40;2.63;;;;;;;;;;5106468;28;20036;-61
2021/01/21 00:14:53;;;;;;;4.65;2.42;;;;;;;;;;5109197;28;20118;-61
2021/01/21 00:17:18;;;;;;;4.05;2.03;;;;;;;;;;5106692;28;20488;-61
2021/01/21 00:19:43;;;;;;;6.60;2.10;;;;;;;;;;5104723;28;20028;-61
2021/01/21 00:22:09;;;;;;;4.50;2.08;;;;;;;;;;5108961;28;20093;-60
2021/01/21 00:24:34;;;;;;;4.15;2.00;;;;;;;;;;5107175;28;20031;-61
2021/01/21 00:26:59;;;;;;;3.95;2.17;;;;;;;;;;5107630;28;20445;-61
2021/01/21 00:29:25;;;;;;;3.72;2.05;;;;;;;;;;5110407;28;20514;-61
2021/01/21 00:31:51;;;;;;;5.05;2.33;;;;;;;;;;5106864;28;20042;-60
2021/01/21 00:34:17;;;;;;;5.38;2.60;;;;;;;;;;5105455;28;20031;-61
2021/01/21 00:36:42;;;;;;;5.65;2.28;;;;;;;;;;5110853;28;20134;-61
2021/01/21 00:39:07;;;;;;;5.38;2.22;;;;;;;;;;5110931;28;20066;-61
2021/01/21 00:41:33;;;;;;;3.83;1.80;;;;;;;;;;5106284;28;20047;-60
2021/01/21 00:43:58;;;;;;;8.07;2.10;;;;;;;;;;5108906;28;20046;-60
2021/01/21 00:46:23;;;;;;;6.10;2.10;;;;;;;;;;5109830;28;20035;-60
2021/01/21 00:48:49;;;;;;;4.82;2.00;;;;;;;;;;5107580;28;20031;-60
2021/01/21 00:51:14;;;;;;;5.07;2.22;;;;;;;;;;5109769;28;20043;-60
2021/01/21 00:53:39;;;;;;;4.00;2.25;;;;;;;;;;5108398;28;20036;-60
2021/01/21 00:56:05;;;;;;;3.30;1.60;;;;;;;;;;5108383;28;20054;-61
2021/01/21 00:58:30;;;;;;;5.07;2.47;;;;;;;;;;5110175;28;20032;-60
2021/01/21 01:00:56;;;;;;;3.75;1.88;;;;;;;;;;5108049;28;20027;-61
2021/01/21 01:03:21;;;;;;;5.75;2.00;;;;;;;;;;5107891;28;20445;-61
2021/01/21 01:05:46;;;;;;;5.72;2.42;;;;;;;;;;5108364;28;20032;-61
2021/01/21 01:08:12;;;;;;;3.22;1.60;;;;;;;;;;5108464;28;20063;-61
2021/01/21 01:10:37;;;;;;;5.63;2.00;;;;;;;;;;5107227;28;20887;-60
2021/01/21 01:13:02;;;;;;;8.05;2.67;;;;;;;;;;5109948;28;20024;-61
2021/01/21 01:15:31;;;;;;;5.28;3.15;;;;;;;;;;5108772;28;20024;-61
2021/01/21 01:17:56;;;;;;;4.95;2.40;;;;;;;;;;5106405;28;20124;-61
2021/01/21 01:20:22;;;;;;;5.72;2.53;;;;;;;;;;5109424;28;20467;-61
2021/01/21 01:22:49;;;;;;;7.50;2.33;;;;;;;;;;5107729;28;20040;-60
2021/01/21 01:25:15;;;;;;;5.32;2.10;;;;;;;;;;5106861;28;20039;-61
2021/01/21 01:27:41;;;;;;;5.70;1.88;;;;;;;;;;5107230;28;20103;-61
2021/01/21 01:30:09;;;;;;;8.73;2.00;;;;;;;;;;5105541;28;20054;-60
2021/01/21 01:32:35;;;;;;;5.80;2.20;;;;;;;;;;5106297;28;20038;-61
2021/01/21 01:35:00;;;;;;;3.30;2.00;;;;;;;;;;5107766;28;20106;-61
2021/01/21 01:37:25;;;;;;;4.32;1.75;;;;;;;;;;5103325;28;20023;-61
2021/01/21 01:39:50;;;;;;;4.50;2.00;;;;;;;;;;5106356;28;20028;-60
2021/01/21 01:42:16;;;;;;;5.07;1.90;;;;;;;;;;5108588;28;20040;-61
2021/01/21 01:44:41;;;;;;;4.80;1.77;;;;;;;;;;5104054;28;20361;-61
2021/01/21 01:47:06;;;;;;;4.55;1.90;;;;;;;;;;5107448;28;20460;-61
2021/01/21 01:49:33;;;;;;;5.70;2.15;;;;;;;;;;5109022;28;20430;-61
2021/01/21 01:52:01;;;;;;;4.93;2.00;;;;;;;;;;5105002;28;20019;-61
2021/01/21 01:54:26;;;;;;;5.40;1.95;;;;;;;;;;5103631;28;20035;-60
2021/01/21 01:56:52;;;;;;;4.32;1.52;;;;;;;;;;5109448;28;20092;-61
2021/01/21 01:59:17;;;;;;;3.75;1.92;;;;;;;;;;5105109;28;20039;-60
2021/01/21 02:01:43;;;;;;;6.10;2.00;;;;;;;;;;5104466;28;20114;-61
2021/01/21 02:04:09;;;;;;;3.50;1.80;;;;;;;;;;5107428;28;20092;-61
2021/01/21 02:06:34;;;;;;;4.10;1.90;;;;;;;;;;5104942;28;20101;-60
2021/01/21 02:08:59;;;;;;;4.22;1.85;;;;;;;;;;5109440;28;20365;-61
2021/01/21 02:11:42;;;;;;;6.80;3.15;;;;;;;;;;5107092;28;20225;-60
2021/01/21 02:14:31;;;;;;;6.00;1.83;;;;;;;;;;5106828;28;20045;-60
2021/01/21 02:17:05;;;;;;;3.55;1.20;;;;;;;;;;5109048;28;20031;-60
2021/01/21 02:20:02;;;;;;;6.38;1.52;;;;;;;;;;5105488;28;20032;-60
2021/01/21 02:23:16;;;;;;;3.75;1.73;;;;;;;;;;5104187;28;20031;-61
2021/01/21 02:25:56;;;;;;;3.33;1.42;;;;;;;;;;5109148;28;20027;-61
2021/01/21 02:28:58;;;;;;;6.78;1.95;;;;;;;;;;5105077;28;20367;-61
2021/01/21 02:31:29;;;;;;;6.30;2.15;;;;;;;;;;5107346;28;20114;-61
2021/01/21 02:34:17;;;;;;;4.70;1.88;;;;;;;;;;5106443;28;20060;-61
2021/01/21 02:36:44;;;;;;;7.28;2.25;;;;;;;;;;5101187;28;20376;-61
2021/01/21 02:39:11;;;;;;;4.53;1.90;;;;;;;;;;5107694;28;20038;-61
2021/01/21 02:41:39;;;;;;;3.72;1.83;;;;;;;;;;5106972;28;20455;-60
2021/01/21 02:44:05;;;;;;;3.78;1.80;;;;;;;;;;5104253;28;20067;-60
2021/01/21 02:46:30;;;;;;;3.97;1.92;;;;;;;;;;5109302;28;20124;-61
2021/01/21 02:48:58;;;;;;;3.05;1.73;;;;;;;;;;5103818;28;20457;-60
2021/01/21 02:51:43;;;;;;;3.75;1.95;;;;;;;;;;5105719;28;20104;-61
2021/01/21 02:54:35;;;;;;;4.18;1.83;;;;;;;;;;5108328;28;20054;-61
2021/01/21 02:57:08;;;;;;;2.72;1.40;;;;;;;;;;5106491;28;20034;-61
2021/01/21 02:59:41;;;;;;;6.50;1.65;;;;;;;;;;5110797;28;20065;-61
2021/01/21 03:02:11;;;;;;;4.03;1.85;;;;;;;;;;5112625;28;20027;-60
2021/01/21 03:04:40;;;;;;;4.47;1.60;;;;;;;;;;5106176;28;20152;-60
2021/01/21 03:07:10;;;;;;;5.32;1.80;;;;;;;;;;5110528;28;20067;-60
2021/01/21 03:09:41;;;;;;;4.50;1.70;;;;;;;;;;5107210;28;20111;-60
2021/01/21 03:12:19;;;;;;;;;;;;;;;;;;5107608;28;20043;-61
2021/01/21 03:14:45;;;;;;;3.38;1.55;;;;;;;;;;5112665;28;20329;-61
2021/01/21 03:17:11;;;;;;;3.55;1.65;;;;;;;;;;5112656;28;20035;-60
2021/01/21 03:19:36;;;;;;;3.75;1.67;;;;;;;;;;5105380;28;20035;-60
2021/01/21 03:22:02;;;;;;;4.00;1.70;;;;;;;;;;5109358;28;20122;-61
2021/01/21 03:24:27;;;;;;;3.10;1.52;;;;;;;;;;5109637;28;20528;-61
2021/01/21 03:26:53;;;;;;;5.30;1.95;;;;;;;;;;5107888;28;20026;-60
2021/01/21 03:29:19;;;;;;;5.63;1.92;;;;;;;;;;5111513;28;20023;-61
2021/01/21 03:31:44;;;;;;;3.90;1.92;;;;;;;;;;5107810;28;20461;-60
2021/01/21 03:34:09;;;;;;;3.83;1.75;;;;;;;;;;5107445;28;20024;-60
2021/01/21 03:36:35;;;;;;;3.45;1.73;;;;;;;;;;5109061;28;20431;-61
2021/01/21 03:39:00;;;;;;;5.45;2.05;;;;;;;;;;5107174;28;20475;-60
2021/01/21 03:41:25;;;;;;;5.03;1.83;;;;;;;;;;5110668;28;20039;-60
2021/01/21 03:43:51;;;;;;;4.05;1.90;;;;;;;;;;5109516;27;20110;-61
2021/01/21 03:46:16;;;;;;;3.63;1.85;;;;;;;;;;5109733;28;20032;-61
2021/01/21 03:48:41;;;;;;;3.92;1.80;;;;;;;;;;5103645;28;20039;-60
2021/01/21 03:51:06;;;;;;;4.57;2.20;;;;;;;;;;5109276;28;20070;-60
2021/01/21 03:53:32;;;;;;;9.75;2.05;;;;;;;;;;5107390;28;20054;-60
2021/01/21 03:55:57;;;;;;;4.30;2.00;;;;;;;;;;5106863;28;20110;-61
2021/01/21 03:58:23;;;;;;;3.97;1.92;;;;;;;;;;5111404;28;20063;-61
2021/01/21 04:00:48;;;;;;;3.90;1.75;;;;;;;;;;5109871;28;20032;-60
2021/01/21 04:03:13;;;;;;;5.65;1.90;;;;;;;;;;5106149;28;20633;-61
2021/01/21 04:05:38;;;;;;;5.07;1.50;;;;;;;;;;5110305;28;20106;-60
2021/01/21 04:08:04;;;;;;;3.85;1.88;;;;;;;;;;5111811;28;20051;-61
2021/01/21 04:10:29;;;;;;;3.47;1.73;;;;;;;;;;5107498;28;20070;-61
2021/01/21 04:12:55;;;;;;;3.20;1.50;;;;;;;;;;5108540;28;20036;-61
2021/01/21 04:15:20;;;;;;;6.47;2.10;;;;;;;;;;5110260;28;20055;-61
2021/01/21 04:17:45;;;;;;;2.85;1.40;;;;;;;;;;5104704;28;20101;-61
2021/01/21 04:20:11;;;;;;;4.20;1.40;;;;;;;;;;5111179;28;20031;-61
2021/01/21 04:22:36;;;;;;;6.03;1.80;;;;;;;;;;5106279;28;20042;-61
2021/01/21 04:25:02;;;;;;;3.72;1.73;;;;;;;;;;5106517;28;20100;-62
2021/01/21 04:27:28;;;;;;;5.53;2.10;;;;;;;;;;5110994;28;20043;-61
2021/01/21 04:29:53;;;;;;;5.22;2.08;;;;;;;;;;5107215;28;20063;-61
2021/01/21 04:32:18;;;;;;;5.05;1.92;;;;;;;;;;5105353;28;20024;-61
2021/01/21 04:34:44;;;;;;;3.88;1.50;;;;;;;;;;5110968;28;20036;-62
2021/01/21 04:37:09;;;;;;;3.50;1.80;;;;;;;;;;5108329;28;20024;-62
2021/01/21 04:39:34;;;;;;;4.88;1.75;;;;;;;;;;5106352;28;20115;-62
2021/01/21 04:42:00;;;;;;;2.78;1.60;;;;;;;;;;5107635;28;20024;-62
2021/01/21 04:44:25;;;;;;;4.07;1.73;;;;;;;;;;5107504;28;20044;-62
2021/01/21 04:46:51;;;;;;;3.28;1.75;;;;;;;;;;5111014;28;20353;-61
2021/01/21 04:49:17;;;;;;;3.75;1.88;;;;;;;;;;5110843;28;20097;-62
2021/01/21 04:51:45;;;;;;;3.95;1.80;;;;;;;;;;5110223;28;20050;-62
2021/01/21 04:54:15;;;;;;;3.45;1.77;;;;;;;;;;5110396;28;20445;-62
2021/01/21 04:56:47;;;;;;;3.72;1.60;;;;;;;;;;5110691;28;20031;-62
2021/01/21 04:59:16;;;;;;;3.83;1.70;;;;;;;;;;5110072;28;20027;-62
2021/01/21 05:01:41;;;;;;;4.43;1.50;;;;;;;;;;5109290;28;20345;-61
2021/01/21 05:04:07;;;;;;;3.50;1.52;;;;;;;;;;5110382;28;20032;-62
2021/01/21 05:06:33;;;;;;;6.00;2.45;;;;;;;;;;5109406;28;20039;-61
2021/01/21 05:09:01;;;;;;;3.13;1.73;;;;;;;;;;5110609;28;20047;-62
2021/01/21 05:11:26;;;;;;;4.65;1.92;;;;;;;;;;5109104;28;20031;-62
2021/01/21 05:13:52;;;;;;;3.35;1.63;;;;;;;;;;5109600;28;20028;-62
2021/01/21 05:16:17;;;;;;;3.40;1.63;;;;;;;;;;5110221;28;20035;-61
2021/01/21 05:18:43;;;;;;;2.92;1.50;;;;;;;;;;5109421;28;20046;-61
2021/01/21 05:21:09;;;;;;;8.73;2.42;;;;;;;;;;5110812;28;20118;-61
2021/01/21 05:23:35;;;;;;;4.60;1.98;;;;;;;;;;5110003;28;20170;-61
2021/01/21 05:26:00;;;;;;;3.55;1.80;;;;;;;;;;5110290;28;20180;-61
2021/01/21 05:28:27;;;;;;;6.13;2.05;;;;;;;;;;5109022;28;20039;-61
2021/01/21 05:30:53;;;;;;;6.88;2.22;;;;;;;;;;5110158;28;20084;-61
2021/01/21 05:33:20;;;;;;;4.47;1.77;;;;;;;;;;5108994;28;20028;-61
2021/01/21 05:35:50;;;;;;;4.45;1.85;;;;;;;;;;5110366;28;20024;-62
2021/01/21 05:38:15;;;;;;;4.75;2.22;;;;;;;;;;5107953;28;20512;-62
2021/01/21 05:40:45;;;;;;;3.65;1.73;;;;;;;;;;5109918;28;20031;-62
2021/01/21 05:43:10;;;;;;;6.43;2.17;;;;;;;;;;5109305;28;20035;-62
2021/01/21 05:45:35;;;;;;;3.53;1.70;;;;;;;;;;5109202;28;20047;-62
2021/01/21 05:48:02;;;;;;;3.38;1.60;;;;;;;;;;5107334;28;20031;-62
2021/01/21 05:50:28;;;;;;;5.35;1.95;;;;;;;;;;5108837;28;20573;-62
2021/01/21 05:52:55;;;;;;;4.35;2.00;;;;;;;;;;5108721;28;20069;-61
2021/01/21 05:55:22;;;;;;;4.57;2.08;;;;;;;;;;5108483;28;20039;-61
2021/01/21 05:57:48;;;;;;;7.22;2.20;;;;;;;;;;5109828;28;20031;-62
2021/01/21 06:00:15;;;;;;;4.85;2.25;;;;;;;;;;5109445;28;20121;-62
2021/01/21 06:02:41;;;;;;;5.18;1.98;;;;;;;;;;5109383;28;20063;-62
2021/01/21 06:05:07;;;;;;;4.35;2.00;;;;;;;;;;5108809;28;20541;-62
2021/01/21 06:07:33;;;;;;;4.15;1.77;;;;;;;;;;5109729;28;20040;-62
2021/01/21 06:09:59;;;;;;;4.60;2.15;;;;;;;;;;5109747;28;20046;-62
2021/01/21 06:12:28;;;;;;;3.47;1.52;;;;;;;;;;5108348;28;20042;-61
2021/01/21 06:14:59;;;;;;;4.43;1.88;;;;;;;;;;5109615;28;20380;-62
2021/01/21 06:17:25;;;;;;;4.20;2.08;;;;;;;;;;5109388;28;20059;-61
2021/01/21 06:19:50;;;;;;;4.03;1.80;;;;;;;;;;5109774;28;20395;-62
2021/01/21 06:22:21;;;;;;;8.38;2.55;;;;;;;;;;5108939;28;20063;-62
2021/01/21 06:24:49;;;;;;;4.53;2.10;;;;;;;;;;5108039;28;20095;-61
2021/01/21 06:27:15;;;;;;;3.67;1.90;;;;;;;;;;5112908;28;20043;-61
2021/01/21 06:29:44;;;;;;;4.25;2.33;;;;;;;;;;5112271;28;20427;-61
2021/01/21 06:32:13;;;;;;;3.17;1.67;;;;;;;;;;5112069;28;20133;-62
2021/01/21 06:34:41;;;;;;;5.03;2.38;;;;;;;;;;5113351;28;20027;-62
2021/01/21 06:37:12;;;;;;;5.50;2.10;;;;;;;;;;5112385;28;20081;-63
2021/01/21 06:39:37;;;;;;;;;;;;;;;;;;5113384;28;20035;-62
2021/01/21 06:42:04;;;;;;;4.80;2.13;;;;;;;;;;5113388;28;20347;-62
2021/01/21 06:44:30;;;;;;;10.60;2.35;;;;;;;;;;5112871;28;20028;-62
2021/01/21 06:46:55;;;;;;;3.63;2.00;;;;;;;;;;5112314;28;20163;-62
2021/01/21 06:49:22;;;;;;;6.97;2.47;;;;;;;;;;5112157;28;20034;-62
2021/01/21 06:51:48;;;;;;;11.20;2.63;;;;;;;;;;5110464;28;20024;-62
2021/01/21 06:54:15;;;;;;;4.32;2.08;;;;;;;;;;5112261;28;20039;-62
2021/01/21 06:56:40;;;;;;;4.70;1.92;;;;;;;;;;5113187;28;20191;-62
2021/01/21 06:59:06;;;;;;;6.88;2.05;;;;;;;;;;5112067;28;20110;-62
2021/01/21 07:01:36;;;;;;;3.85;1.90;;;;;;;;;;5113095;28;20096;-62
2021/01/21 07:04:04;;;;;;;4.57;2.20;;;;;;;;;;5112709;28;20031;-63
2021/01/21 07:06:51;;;;;;;4.63;2.38;;;;;;;;;;5112133;28;20400;-63
2021/01/21 07:09:22;;;;;;;4.65;1.77;;;;;;;;;;5111146;28;20471;-62
2021/01/21 07:11:50;;;;;;;3.78;1.95;;;;;;;;;;5111568;28;20115;-63
2021/01/21 07:14:20;;;;;;;3.22;1.63;;;;;;;;;;5112722;28;20102;-63
2021/01/21 07:16:55;;;;;;;3.78;2.03;;;;;;;;;;5109912;28;20051;-62
2021/01/21 07:19:47;;;;;;;5.00;1.50;;;;;;;;;;5113207;28;20055;-63
2021/01/21 07:22:20;;;;;;;3.72;1.63;;;;;;;;;;5111606;28;20046;-62
2021/01/21 07:24:49;;;;;;;5.75;2.30;;;;;;;;;;5111651;28;20032;-63
2021/01/21 07:27:20;;;;;;;4.05;1.92;;;;;;;;;;5112185;28;20676;-63
2021/01/21 07:29:45;;;;;;;3.72;1.75;;;;;;;;;;5110313;28;20114;-63
2021/01/21 07:32:11;;;;;;;4.20;1.80;;;;;;;;;;5111446;28;20102;-63
2021/01/21 07:34:39;;;;;;;2.72;1.40;;;;;;;;;;5111748;28;20122;-63
2021/01/21 07:37:42;;;;;;;3.70;1.25;;;;;;;;;;5110889;28;20361;-63
2021/01/21 07:40:10;;;;;;;5.20;1.92;;;;;;;;;;5111569;28;20039;-63
2021/01/21 07:42:38;;;;;;;7.00;1.60;;;;;;;;;;5111961;28;20472;-63
2021/01/21 07:45:19;;;;;;;3.83;1.80;;;;;;;;;;5112045;28;20490;-63
2021/01/21 07:47:46;;;;;;;4.13;1.40;;;;;;;;;;5111565;28;20480;-63
2021/01/21 07:50:18;;;;;;;6.00;1.75;;;;;;;;;;5112087;28;20476;-63
2021/01/21 07:52:45;;;;;;;3.97;1.55;;;;;;;;;;5110110;28;20031;-63
2021/01/21 07:55:12;;;;;;;4.82;1.10;;;;;;;;;;5110715;28;20039;-63
2021/01/21 07:57:38;;;;;;;7.25;1.52;;;;;;;;;;5110991;28;20438;-62
2021/01/21 08:00:07;;;;;;;2.58;1.08;;;;;;;;;;5111760;28;20031;-63
2021/01/21 08:02:46;;;;;;;3.30;1.35;;;;;;;;;;5111882;28;20032;-63
2021/01/21 08:05:23;;;;;;;8.85;1.23;;;;;;;;;;5109604;28;20108;-63
2021/01/21 08:07:55;;;;;;;4.70;1.42;;;;;;;;;;5111097;28;20020;-62
2021/01/21 08:10:23;;;;;;;2.85;1.40;;;;;;;;;;5111559;28;20028;-63
2021/01/21 08:12:57;;;;;;;2.38;1.17;;;;;;;;;;5111263;28;20027;-60
2021/01/21 08:15:24;;;;;;;3.65;1.60;;;;;;;;;;5110959;28;20096;-61
2021/01/21 08:17:50;;;;;;;2.33;1.25;;;;;;;;;;5111754;28;20471;-60
2021/01/21 08:20:29;;;;;;;6.60;1.63;;;;;;;;;;5111493;28;20047;-61
2021/01/21 08:23:02;;;;;;;10.95;1.73;;;;;;;;;;5110749;28;20043;-60
2021/01/21 08:25:32;;;;;;;4.53;1.50;;;;;;;;;;5111277;28;20535;-60
2021/01/21 08:27:57;;;;;;;2.95;1.38;;;;;;;;;;5110263;28;20048;-61
2021/01/21 08:30:29;;;;;;;3.50;1.40;;;;;;;;;;5110368;28;20451;-60
2021/01/21 08:33:17;;;;;;;4.05;1.60;;;;;;;;;;5111599;28;20092;-60
2021/01/21 08:36:04;;;;;;;3.90;1.65;;;;;;;;;;5111254;28;20045;-60
2021/01/21 08:38:35;;;;;;;3.13;1.35;;;;;;;;;;5110488;28;20046;-60
2021/01/21 08:41:02;;;;;;;3.20;1.38;;;;;;;;;;5109778;28;20043;-60
2021/01/21 08:43:29;;;;;;;4.30;1.40;;;;;;;;;;5110282;28;20032;-61
2021/01/21 08:45:54;;;;;;;4.65;1.40;;;;;;;;;;5111066;28;20031;-60
2021/01/21 08:48:32;;;;;;;2.92;1.25;;;;;;;;;;5109743;28;20032;-60
2021/01/21 08:50:58;;;;;;;4.10;1.60;;;;;;;;;;5110213;28;20768;-60
2021/01/21 08:53:26;;;;;;;3.05;1.45;;;;;;;;;;5107682;28;20027;-61
2021/01/21 08:55:53;;;;;;;2.83;1.27;;;;;;;;;;5109327;28;20051;-60
2021/01/21 08:58:20;;;;;;;5.80;1.23;;;;;;;;;;5110500;28;20043;-60
2021/01/21 09:01:05;;;;;;;5.00;1.42;;;;;;;;;;5107662;28;20032;-60
2021/01/21 09:03:32;;;;;;;2.60;1.10;;;;;;;;;;5109634;28;20067;-60
2021/01/21 09:05:58;;;;;;;4.82;1.38;;;;;;;;;;5110732;28;20028;-60
2021/01/21 09:08:23;;;;;;;2.90;1.25;;;;;;;;;;5110464;28;20537;-61
2021/01/21 09:10:49;;;;;;;2.28;1.02;;;;;;;;;;5106947;28;20476;-60
2021/01/21 09:13:18;;;;;;;3.60;1.25;;;;;;;;;;5110023;28;20035;-61
2021/01/21 09:15:55;;;;;;;3.65;1.30;;;;;;;;;;5108481;28;20031;-61
2021/01/21 09:18:26;;;;;;;4.18;1.48;;;;;;;;;;5109222;28;20117;-60
2021/01/21 09:21:13;;;;;;;3.13;1.17;;;;;;;;;;5110241;28;20051;-60
2021/01/21 09:23:39;;;;;;;2.60;1.40;;;;;;;;;;5108382;28;20398;-59
2021/01/21 09:26:15;;;;;;;2.08;1.00;;;;;;;;;;5108246;28;20145;-60
2021/01/21 09:28:57;;;;;;;2.42;1.13;;;;;;;;;;5110236;28;20031;-60
2021/01/21 09:31:26;;;;;;;4.20;1.30;;;;;;;;;;5109095;28;20023;-60
2021/01/21 09:33:52;;;;;;;2.00;1.00;;;;;;;;;;5109668;28;20039;-60
2021/01/21 09:36:19;;;;;;;2.05;1.00;;;;;;;;;;5108399;28;20027;-60
2021/01/21 09:38:44;;;;;;;1.88;1.10;;;;;;;;;;5105716;28;20055;-60
2021/01/21 09:41:10;;;;;;;2.13;1.20;;;;;;;;;;5104565;28;20039;-60
2021/01/21 09:43:35;;;;;;;3.53;1.20;;;;;;;;;;5101470;28;20123;-60
2021/01/21 09:46:01;;;;;;;3.20;1.25;;;;;;;;;;5106752;28;20398;-60
2021/01/21 09:48:26;;;;;;;3.33;1.30;;;;;;;;;;5108323;28;20108;-60
2021/01/21 09:50:55;;;;;;;3.25;1.40;;;;;;;;;;5106215;28;20456;-59
2021/01/21 09:53:20;;;;;;;3.00;1.25;;;;;;;;;;5101581;28;20624;-59
2021/01/21 09:55:47;;;;;;;3.15;1.52;;;;;;;;;;5107212;28;20035;-59
2021/01/21 09:58:12;;;;;;;4.63;1.52;;;;;;;;;;5106139;28;20031;-60
2021/01/21 10:00:38;;;;;;;5.82;1.27;;;;;;;;;;5100695;28;20036;-59
2021/01/21 10:03:03;;;;;;;4.35;1.05;;;;;;;;;;5102398;28;20039;-60
2021/01/21 10:05:28;;;;;;;2.83;1.08;;;;;;;;;;5104481;28;20055;-60
2021/01/21 10:07:54;;;;;;;2.20;0.80;;;;;;;;;;5106647;28;20035;-60
2021/01/21 10:10:19;;;;;;;3.90;1.52;;;;;;;;;;5104961;28;20454;-61
2021/01/21 10:12:44;;;;;;;6.05;1.23;;;;;;;;;;5105666;28;20746;-60
2021/01/21 10:15:10;;;;;;;1.55;0.70;;;;;;;;;;5106696;28;20043;-61
2021/01/21 10:17:36;;;;;;;2.72;0.90;;;;;;;;;;5103493;28;20088;-60
2021/01/21 10:20:02;;;;;;;2.75;0.60;;;;;;;;;;5105609;28;20110;-61
2021/01/21 10:22:27;;;;;;;1.88;0.75;;;;;;;;;;5103051;28;20108;-60
2021/01/21 10:24:52;;;;;;;1.90;0.50;;;;;;;;;;5106169;28;20091;-59
2021/01/21 10:27:20;;;;;;;2.03;0.80;;;;;;;;;;5104277;28;20476;-62
2021/01/21 10:29:45;;;;;;;1.17;0.50;;;;;;;;;;5103658;28;20032;-61
2021/01/21 10:32:11;;;;;;;0.90;0.47;;;;;;;;;;5105939;28;20036;-62
2021/01/21 10:34:36;;;;;;;2.00;0.90;;;;;;;;;;5105003;28;20031;-62
2021/01/21 10:37:03;;;;;;;1.52;0.68;;;;;;;;;;5104654;28;20032;-62
2021/01/21 10:39:28;;;;;;;2.28;0.77;;;;;;;;;;5105376;28;20036;-62
2021/01/21 10:41:53;;;;;;;2.75;1.00;;;;;;;;;;5104293;28;20075;-63
2021/01/21 10:44:18;;;;;;;1.17;0.40;;;;;;;;;;5104486;28;20111;-63
2021/01/21 10:46:44;;;;;;;1.63;0.68;;;;;;;;;;5104352;28;20114;-62
2021/01/21 10:49:10;;;;;;;1.10;0.60;;;;;;;;;;5106240;28;20043;-62
2021/01/21 10:51:36;;;;;;;0.90;0.50;;;;;;;;;;5105187;28;20112;-62
2021/01/21 10:54:01;;;;;;;2.10;0.70;;;;;;;;;;5105283;28;20528;-62
2021/01/21 10:56:27;;;;;;;1.35;0.73;;;;;;;;;;5106111;28;20035;-62
2021/01/21 10:58:52;;;;;;;1.50;0.68;;;;;;;;;;5106302;28;20027;-62
2021/01/21 11:01:17;;;;;;;2.58;0.52;;;;;;;;;;5105797;28;20050;-62
2021/01/21 11:03:43;;;;;;;1.92;0.63;;;;;;;;;;5100842;28;20164;-62
2021/01/21 11:06:08;;;;;;;2.38;0.50;;;;;;;;;;5102351;28;20038;-62
2021/01/21 11:08:33;;;;;;;1.70;0.60;;;;;;;;;;5105742;28;20042;-62
2021/01/21 11:11:00;;;;;;;1.48;0.57;;;;;;;;;;5105131;28;20101;-62
2021/01/21 11:13:25;;;;;;;0.82;0.47;;;;;;;;;;5109289;28;20039;-61
2021/01/21 11:15:50;;;;;;;4.32;0.98;;;;;;;;;;5110582;28;21463;-61
2021/01/21 11:18:16;;;;;;;0.90;0.43;;;;;;;;;;5110121;28;20027;-61
2021/01/21 11:20:42;;;;;;;1.98;0.70;;;;;;;;;;5107369;28;20504;-61
2021/01/21 11:23:09;;;;;;;1.20;0.60;;;;;;;;;;5109451;28;20031;-61
2021/01/21 11:25:35;;;;;;;2.28;0.80;;;;;;;;;;5112133;27;20028;-61
2021/01/21 11:28:00;;;;;;;1.20;0.60;;;;;;;;;;5111416;28;20119;-61
2021/01/21 11:30:26;;;;;;;1.67;0.65;;;;;;;;;;5112103;28;20363;-61
2021/01/21 11:32:51;;;;;;;1.25;0.60;;;;;;;;;;5112194;28;20027;-61
2021/01/21 11:35:17;;;;;;;2.25;0.80;;;;;;;;;;5111424;28;20039;-61
2021/01/21 11:37:42;;;;;;;2.22;0.80;;;;;;;;;;5112272;28;20036;-61
2021/01/21 11:40:08;;;;;;;2.58;1.08;;;;;;;;;;5113854;27;20023;-61
2021/01/21 11:42:34;;;;;;;2.70;0.90;;;;;;;;;;5111673;28;20062;-61
2021/01/21 11:45:01;;;;;;;1.98;1.00;;;;;;;;;;5111103;28;20041;-61
2021/01/21 11:47:28;;;;;;;2.30;0.93;;;;;;;;;;5111158;28;20031;-61
2021/01/21 11:49:53;;;;;;;4.53;0.85;;;;;;;;;;5110646;28;20035;-61
2021/01/21 11:52:19;;;;;;;5.22;0.73;;;;;;;;;;5108131;28;20072;-61
2021/01/21 11:54:44;;;;;;;1.65;0.80;;;;;;;;;;5104289;28;20463;-61
2021/01/21 11:57:09;;;;;;;1.38;0.73;;;;;;;;;;5106114;28;20039;-61
2021/01/21 11:59:35;;;;;;;1.67;0.77;;;;;;;;;;5110086;28;20035;-60
2021/01/21 12:02:00;;;;;;;1.50;0.70;;;;;;;;;;5110365;28;20070;-61
2021/01/21 12:04:25;;;;;;;1.25;0.57;;;;;;;;;;5110003;28;20036;-60
2021/01/21 12:06:51;;;;;;;2.92;0.70;;;;;;;;;;5111177;28;20028;-60
2021/01/21 12:09:16;;;;;;;4.03;0.85;;;;;;;;;;5109264;28;20040;-61
2021/01/21 12:11:42;;;;;;;1.02;0.52;;;;;;;;;;5107325;28;20039;-58
2021/01/21 12:14:07;;;;;;;3.78;1.00;;;;;;;;;;5110177;28;20063;-60
2021/01/21 12:16:33;;;;;;;1.30;0.40;;;;;;;;;;5110216;28;20377;-59
2021/01/21 12:18:58;;;;;;;1.27;0.68;;;;;;;;;;5107038;28;20066;-58
2021/01/21 12:21:23;;;;;;;1.85;0.95;;;;;;;;;;5099553;27;20040;-59
2021/01/21 12:23:49;;;;;;;2.83;0.80;;;;;;;;;;5106904;28;20031;-59
2021/01/21 12:26:16;;;;;;;2.33;0.60;;;;;;;;;;5108081;28;20061;-59
2021/01/21 12:28:41;;;;;;;1.25;0.52;;;;;;;;;;5106804;28;20087;-58
2021/01/21 12:31:07;;;;;;;0.85;0.63;;;;;;;;;;5105132;28;20040;-58
2021/01/21 12:33:33;;;;;;;1.48;0.52;;;;;;;;;;5107364;28;20055;-59
2021/01/21 12:35:59;;;;;;;2.10;0.77;;;;;;;;;;5106489;28;20131;-59
2021/01/21 12:38:24;;;;;;;2.67;0.60;;;;;;;;;;5106326;28;20453;-58
2021/01/21 12:40:50;;;;;;;1.40;0.60;;;;;;;;;;5106173;28;20705;-59
2021/01/21 12:43:15;;;;;;;0.60;0.50;;;;;;;;;;5106665;28;20043;-59
2021/01/21 12:45:43;;;;;;;2.33;0.77;;;;;;;;;;5107603;28;20035;-59
2021/01/21 12:48:08;;;;;;;1.33;0.47;;;;;;;;;;5108641;27;20050;-59
2021/01/21 12:50:34;;;;;;;6.18;1.10;;;;;;;;;;5106687;28;20831;-60
2021/01/21 12:53:00;;;;;;;4.55;0.77;;;;;;;;;;5106303;28;20118;-60
2021/01/21 12:55:25;;;;;;;1.95;0.70;;;;;;;;;;5106168;28;20043;-59
2021/01/21 12:57:51;;;;;;;4.43;0.88;;;;;;;;;;5102941;28;20699;-59
2021/01/21 13:00:16;;;;;;;3.78;0.85;;;;;;;;;;5102402;28;20039;-59
2021/01/21 13:02:42;;;;;;;1.85;0.70;;;;;;;;;;5102865;28;20036;-59
2021/01/21 13:05:08;;;;;;;2.33;0.80;;;;;;;;;;5104946;28;20097;-59
2021/01/21 13:07:33;;;;;;;2.92;0.85;;;;;;;;;;5104988;28;20031;-59
2021/01/21 13:09:59;;;;;;;2.63;0.80;;;;;;;;;;5104765;28;20035;-59
2021/01/21 13:12:24;;;;;;;2.17;0.57;;;;;;;;;;5105926;28;20107;-59
2021/01/21 13:14:50;;;;;;;4.10;1.17;;;;;;;;;;5104453;28;20110;-59
2021/01/21 13:17:15;;;;;;;2.22;0.60;;;;;;;;;;5107208;28;20039;-59
2021/01/21 13:19:42;;;;;;;2.72;0.73;;;;;;;;;;5105921;28;20063;-60
2021/01/21 13:22:07;;;;;;;2.72;1.15;;;;;;;;;;5103534;28;20031;-60
2021/01/21 13:24:32;;;;;;;2.10;0.80;;;;;;;;;;5106172;28;20028;-59
2021/01/21 13:26:58;;;;;;;2.78;0.77;;;;;;;;;;5106482;28;20597;-58
2021/01/21 13:29:23;;;;;;;4.40;0.98;;;;;;;;;;5105663;28;20031;-59
2021/01/21 13:31:49;;;;;;;2.88;0.65;;;;;;;;;;5100629;28;20028;-59
2021/01/21 13:34:16;;;;;;;2.13;0.85;;;;;;;;;;5105602;28;20122;-59
2021/01/21 13:36:41;;;;;;;2.78;0.70;;;;;;;;;;5104992;28;20023;-59
2021/01/21 13:39:06;;;;;;;4.50;1.10;;;;;;;;;;5104678;28;20727;-59
2021/01/21 13:41:32;;;;;;;4.03;1.20;;;;;;;;;;5104649;28;20472;-59
2021/01/21 13:43:57;;;;;;;3.05;0.93;;;;;;;;;;5107202;28;20118;-58
2021/01/21 13:46:23;;;;;;;3.45;0.85;;;;;;;;;;5105134;28;20035;-59
2021/01/21 13:48:48;;;;;;;2.25;0.93;;;;;;;;;;5106220;28;20031;-59
2021/01/21 13:51:14;;;;;;;3.53;0.98;;;;;;;;;;5106370;28;20042;-60
2021/01/21 13:53:39;;;;;;;5.30;1.08;;;;;;;;;;5106606;28;20512;-59
2021/01/21 13:56:05;;;;;;;3.25;1.00;;;;;;;;;;5105910;28;20259;-59
2021/01/21 13:58:31;;;;;;;3.22;0.93;;;;;;;;;;5106793;28;20040;-59
2021/01/21 14:00:57;;;;;;;8.57;1.23;;;;;;;;;;5106255;28;20035;-59
2021/01/21 14:03:22;;;;;;;4.13;1.20;;;;;;;;;;5102862;28;20550;-59
2021/01/21 14:05:48;;;;;;;5.78;1.30;;;;;;;;;;5106386;28;20051;-59
2021/01/21 14:08:13;;;;;;;2.83;0.93;;;;;;;;;;5105696;28;20058;-59
2021/01/21 14:10:38;;;;;;;6.35;1.85;;;;;;;;;;5104973;28;20027;-59
2021/01/21 14:13:04;;;;;;;2.85;0.80;;;;;;;;;;5105393;28;20116;-58
2021/01/21 14:15:29;;;;;;;4.50;1.00;;;;;;;;;;5105933;28;20046;-59
2021/01/21 14:17:55;;;;;;;4.38;0.85;;;;;;;;;;5105276;28;20422;-59
2021/01/21 14:20:22;;;;;;;3.17;1.08;;;;;;;;;;5103502;28;20038;-60
2021/01/21 14:22:47;;;;;;;4.82;1.05;;;;;;;;;;5106618;28;20045;-60
2021/01/21 14:25:13;;;;;;;6.55;1.65;;;;;;;;;;5106466;28;20357;-60
2021/01/21 14:27:38;;;;;;;3.88;1.63;;;;;;;;;;5105665;28;20105;-60
2021/01/21 14:30:04;;;;;;;6.22;1.60;;;;;;;;;;5106019;28;20028;-60
2021/01/21 14:32:30;;;;;;;6.50;2.13;;;;;;;;;;5102690;28;20524;-60
2021/01/21 14:34:55;;;;;;;5.13;1.73;;;;;;;;;;5108358;28;20051;-60
2021/01/21 14:37:20;;;;;;;4.70;1.33;;;;;;;;;;5106786;28;20027;-60
2021/01/21 14:39:46;;;;;;;11.48;1.80;;;;;;;;;;5106476;28;20031;-59
2021/01/21 14:42:12;;;;;;;5.45;1.55;;;;;;;;;;5106823;28;20126;-60
2021/01/21 14:44:39;;;;;;;11.18;2.38;;;;;;;;;;5109099;28;20044;-59